Time;durP1;ratioP1;P1;durP2;ratioP2;P2;SDS_P1;SDS_P2;PMS_P1;PMS_P2;Temp;Humidity;BMP_temperature;BMP_pressure;BME280_temperature;BME280_humidity;BME280_pressure;Samples;Min_cycle;Max_cycle;Signal;HPM_P1;HPM_P2
2023/09/11 00:01:34;;;;;;;13.80;6.25;;;;;;;21.00;100.00;100384.53;5019231;28;20517;-72
2023/09/11 00:04:00;;;;;;;10.02;5.75;;;;;;;20.94;100.00;100377.56;5018780;28;20029;-72
2023/09/11 00:06:25;;;;;;;12.07;6.30;;;;;;;20.94;100.00;100383.19;5018891;28;20030;-72
2023/09/11 00:08:51;;;;;;;7.82;5.28;;;;;;;20.88;100.00;100381.84;5001926;28;20030;-72
2023/09/11 00:11:17;;;;;;;10.07;5.80;;;;;;;20.87;100.00;100375.41;5002143;28;20041;-72
2023/09/11 00:13:42;;;;;;;9.93;5.80;;;;;;;20.86;100.00;100372.94;5018562;28;20478;-72
2023/09/11 00:16:08;;;;;;;10.82;5.38;;;;;;;20.81;100.00;100374.03;5002014;28;20034;-72
2023/09/11 00:18:33;;;;;;;8.93;5.10;;;;;;;20.78;100.00;100373.94;5001930;28;20034;-72
2023/09/11 00:20:59;;;;;;;8.27;5.32;;;;;;;20.75;100.00;100367.03;4985971;28;20034;-72
2023/09/11 00:23:24;;;;;;;9.35;5.10;;;;;;;20.74;100.00;100360.56;5002230;28;20049;-72
2023/09/11 00:25:50;;;;;;;9.98;6.38;;;;;;;20.68;100.00;100367.69;4985801;28;20064;-72
2023/09/11 00:28:15;;;;;;;8.98;5.25;;;;;;;20.66;100.00;100357.94;4999298;28;20034;-72
2023/09/11 00:30:40;;;;;;;10.20;5.25;;;;;;;20.63;100.00;100344.56;5019683;28;20034;-72
2023/09/11 00:33:06;;;;;;;8.05;5.20;;;;;;;20.59;100.00;100338.00;5002004;28;20026;-72
2023/09/11 00:35:31;;;;;;;8.70;5.60;;;;;;;20.59;100.00;100341.66;5018432;28;20037;-72
2023/09/11 00:37:57;;;;;;;10.40;4.97;;;;;;;20.57;100.00;100338.38;4982798;28;20069;-72
2023/09/11 00:40:22;;;;;;;9.55;4.90;;;;;;;20.53;100.00;100340.28;5001624;28;20486;-72
2023/09/11 00:42:48;;;;;;;6.65;5.03;;;;;;;20.49;100.00;100343.00;5001715;28;20030;-72
2023/09/11 00:45:13;;;;;;;9.25;4.93;;;;;;;20.48;100.00;100352.66;5018289;28;20033;-72
2023/09/11 00:47:40;;;;;;;8.73;5.20;;;;;;;20.46;100.00;100354.22;4982658;28;20088;-72
2023/09/11 00:50:06;;;;;;;7.85;5.25;;;;;;;20.42;100.00;100350.47;4998595;28;20058;-72
2023/09/11 00:52:31;;;;;;;7.68;5.22;;;;;;;20.39;100.00;100349.19;4985187;28;20033;-72
2023/09/11 00:54:56;;;;;;;8.70;5.53;;;;;;;20.37;100.00;100354.41;5017859;28;20080;-72
2023/09/11 00:57:22;;;;;;;6.03;4.88;;;;;;;20.35;100.00;100341.84;4998809;28;20492;-73
2023/09/11 00:59:50;;;;;;;5.90;4.50;;;;;;;20.31;100.00;100341.75;4998274;28;20042;-72
2023/09/11 01:02:16;;;;;;;8.48;4.95;;;;;;;20.28;100.00;100348.94;4996306;28;20062;-72
2023/09/11 01:04:41;;;;;;;6.88;4.85;;;;;;;20.25;100.00;100349.66;5017731;28;20041;-73
2023/09/11 01:07:07;;;;;;;8.20;4.70;;;;;;;20.25;100.00;100351.66;5017033;28;20026;-72
2023/09/11 01:09:35;;;;;;;8.32;4.82;;;;;;;20.26;100.00;100358.94;5000940;28;20489;-72
2023/09/11 01:12:01;;;;;;;8.15;4.93;;;;;;;20.23;100.00;100357.66;5000111;28;20045;-72
2023/09/11 01:14:27;;;;;;;6.82;4.97;;;;;;;20.22;100.00;100360.84;5010925;28;20030;-72
2023/09/11 01:16:58;;;;;;;7.07;4.93;;;;;;;20.21;100.00;100353.56;5010865;28;20036;-72
2023/09/11 01:19:55;;;;;;;10.38;4.90;;;;;;;20.19;100.00;100356.75;4981234;28;20022;-72
2023/09/11 01:22:48;;;;;;;9.10;4.80;;;;;;;20.16;100.00;100354.66;5015904;28;20350;-72
2023/09/11 01:25:26;;;;;;;7.25;4.60;;;;;;;20.14;100.00;100359.00;5017096;28;20113;-72
2023/09/11 01:28:09;;;;;;;8.68;4.88;;;;;;;20.08;100.00;100353.63;5018637;28;20482;-72
2023/09/11 01:30:35;;;;;;;10.02;5.13;;;;;;;20.05;100.00;100350.72;5017169;28;20029;-72
2023/09/11 01:33:00;;;;;;;8.98;5.20;;;;;;;20.03;100.00;100347.44;4997668;28;20541;-73
2023/09/11 01:35:26;;;;;;;7.82;4.32;;;;;;;19.99;100.00;100344.53;5017458;28;20026;-72
2023/09/11 01:37:51;;;;;;;6.63;4.32;;;;;;;19.98;100.00;100344.91;5017177;28;20030;-72
2023/09/11 01:40:18;;;;;;;7.10;4.60;;;;;;;19.96;100.00;100341.63;5016844;28;20111;-72
2023/09/11 01:42:44;;;;;;;6.97;5.28;;;;;;;19.96;100.00;100336.00;4981528;28;20035;-72
2023/09/11 01:45:13;;;;;;;9.57;4.60;;;;;;;19.94;100.00;100341.16;4997648;28;20065;-72
2023/09/11 01:47:38;;;;;;;7.85;4.25;;;;;;;19.90;100.00;100334.63;4951056;28;20038;-72
2023/09/11 01:50:04;;;;;;;8.13;4.82;;;;;;;19.90;100.00;100340.28;4997366;28;20064;-72
2023/09/11 01:52:29;;;;;;;6.10;4.18;;;;;;;19.86;100.00;100355.09;4984318;28;20033;-72
2023/09/11 01:54:56;;;;;;;7.78;4.55;;;;;;;19.83;100.00;100344.50;5016658;28;20481;-72
2023/09/11 01:57:21;;;;;;;6.70;4.63;;;;;;;19.86;100.00;100351.44;4998707;28;20497;-72
2023/09/11 01:59:47;;;;;;;8.38;5.07;;;;;;;19.85;100.00;100344.97;5016840;28;20029;-72
2023/09/11 02:02:12;;;;;;;10.38;4.90;;;;;;;19.80;100.00;100353.69;5000282;28;20029;-72
2023/09/11 02:04:38;;;;;;;8.85;4.53;;;;;;;19.82;100.00;100354.16;5016680;28;20076;-72
2023/09/11 02:07:03;;;;;;;9.68;5.07;;;;;;;19.79;100.00;100360.50;5017784;28;20041;-72
2023/09/11 02:09:29;;;;;;;9.10;4.65;;;;;;;19.78;100.00;100358.03;4999876;28;20034;-72
2023/09/11 02:11:54;;;;;;;10.48;4.93;;;;;;;19.73;100.00;100361.97;4998820;28;20123;-72
2023/09/11 02:14:20;;;;;;;9.60;4.38;;;;;;;19.72;100.00;100360.31;4999983;28;20037;-72
2023/09/11 02:16:45;;;;;;;9.60;5.38;;;;;;;19.70;100.00;100359.06;5017613;28;20505;-72
2023/09/11 02:19:11;;;;;;;6.70;4.68;;;;;;;19.64;100.00;100358.47;4999551;28;20037;-72
2023/09/11 02:21:36;;;;;;;7.53;4.88;;;;;;;19.63;100.00;100354.78;5000284;28;20025;-72
2023/09/11 02:24:02;;;;;;;10.50;6.13;;;;;;;19.64;100.00;100352.81;4978603;28;20030;-72
2023/09/11 02:26:27;;;;;;;10.13;5.25;;;;;;;19.63;100.00;100353.97;5008569;28;20029;-72
2023/09/11 02:28:52;;;;;;;19.98;11.95;;;;;;;19.53;100.00;100354.50;4999881;28;20026;-72
2023/09/11 02:31:18;;;;;;;13.40;8.57;;;;;;;19.52;100.00;100355.69;4980604;28;20054;-72
2023/09/11 02:33:43;;;;;;;13.77;7.78;;;;;;;19.45;100.00;100352.66;4983774;28;20470;-72
2023/09/11 02:36:09;;;;;;;9.65;6.22;;;;;;;19.50;100.00;100358.03;5017630;28;20042;-72
2023/09/11 02:38:34;;;;;;;11.52;6.47;;;;;;;19.52;100.00;100352.84;4999507;28;20034;-72
2023/09/11 02:41:00;;;;;;;13.35;8.85;;;;;;;19.50;100.00;100347.59;4996506;28;20039;-72
2023/09/11 02:43:25;;;;;;;10.63;7.40;;;;;;;19.50;100.00;100353.22;5015573;28;20101;-72
2023/09/11 02:45:51;;;;;;;14.18;9.20;;;;;;;19.51;100.00;100354.06;4983867;28;20057;-72
2023/09/11 02:48:16;;;;;;;11.98;9.20;;;;;;;19.47;100.00;100347.47;4999855;28;20045;-72
2023/09/11 02:50:42;;;;;;;13.73;9.70;;;;;;;19.47;100.00;100341.84;4980370;28;20027;-72
2023/09/11 02:53:13;;;;;;;13.10;7.32;;;;;;;19.50;100.00;100343.94;4999730;28;20041;-72
2023/09/11 02:55:39;;;;;;;17.00;11.55;;;;;;;19.49;100.00;100339.50;4965708;28;20033;-72
2023/09/11 02:58:05;;;;;;;14.15;9.00;;;;;;;19.47;100.00;100347.47;5016271;28;20431;-72
2023/09/11 03:00:33;;;;;;;10.00;7.75;;;;;;;19.52;100.00;100339.59;5016071;28;20030;-72
2023/09/11 03:02:58;;;;;;;12.82;9.52;;;;;;;19.54;100.00;100342.06;5016179;28;20053;-72
2023/09/11 03:05:24;;;;;;;12.57;8.65;;;;;;;19.58;100.00;100329.69;5015994;28;20026;-72
2023/09/11 03:07:50;;;;;;;11.25;8.15;;;;;;;19.58;100.00;100328.88;5015974;28;20038;-72
2023/09/11 03:10:15;;;;;;;11.05;8.32;;;;;;;19.64;100.00;100330.28;4981483;28;20145;-72
2023/09/11 03:12:41;;;;;;;13.02;8.73;;;;;;;19.58;100.00;100321.25;4982574;28;20026;-72
2023/09/11 03:15:07;;;;;;;23.23;13.90;;;;;;;19.50;100.00;100318.59;5015918;28;20041;-72
2023/09/11 03:17:32;;;;;;;20.58;14.00;;;;;;;19.46;100.00;100314.88;4999640;28;20496;-72
2023/09/11 03:19:58;;;;;;;14.55;9.90;;;;;;;19.45;100.00;100304.78;5016801;28;20026;-72
2023/09/11 03:22:24;;;;;;;21.00;11.93;;;;;;;19.46;100.00;100295.16;4999410;28;20478;-72
2023/09/11 03:24:49;;;;;;;17.40;11.48;;;;;;;19.52;100.00;100288.91;4996153;28;20030;-72
2023/09/11 03:27:15;;;;;;;19.83;12.85;;;;;;;19.53;100.00;100290.56;4999534;28;20548;-72
2023/09/11 03:29:40;;;;;;;29.55;17.73;;;;;;;19.42;100.00;100300.69;4967158;28;20060;-72
2023/09/11 03:32:06;;;;;;;23.42;14.75;;;;;;;19.40;100.00;100291.78;5018355;28;20076;-72
2023/09/11 03:34:31;;;;;;;23.90;15.88;;;;;;;19.36;100.00;100288.88;4999817;28;20085;-72
2023/09/11 03:36:57;;;;;;;25.67;15.65;;;;;;;19.32;100.00;100279.50;5001970;28;20025;-72
2023/09/11 03:39:22;;;;;;;24.52;15.05;;;;;;;19.36;100.00;100288.88;4986500;28;20026;-72
2023/09/11 03:41:49;;;;;;;19.35;12.48;;;;;;;19.42;100.00;100287.44;5002790;28;20034;-72
2023/09/11 03:44:14;;;;;;;26.85;15.63;;;;;;;19.38;100.00;100294.13;5003000;28;20040;-72
2023/09/11 03:46:40;;;;;;;23.23;13.52;;;;;;;19.42;100.00;100295.06;5002913;28;20026;-72
2023/09/11 03:49:06;;;;;;;18.67;11.90;;;;;;;19.46;100.00;100286.72;5019129;28;20058;-72
2023/09/11 03:51:31;;;;;;;23.73;14.93;;;;;;;19.41;100.00;100287.78;5019180;28;20033;-73
2023/09/11 03:53:57;;;;;;;16.75;10.93;;;;;;;19.46;100.00;100295.16;5018762;28;20394;-72
2023/09/11 03:56:23;;;;;;;22.73;13.80;;;;;;;19.38;100.00;100305.41;4986502;28;20033;-72
2023/09/11 03:58:49;;;;;;;15.07;9.50;;;;;;;19.43;100.00;100307.97;4999320;28;20050;-72
2023/09/11 04:01:16;;;;;;;19.90;13.07;;;;;;;19.45;100.00;100304.78;4986498;28;20149;-72
2023/09/11 04:03:41;;;;;;;18.75;10.88;;;;;;;19.42;100.00;100298.69;5002706;28;20026;-72
2023/09/11 04:06:07;;;;;;;17.85;13.05;;;;;;;19.40;100.00;100298.22;4983100;28;20605;-72
2023/09/11 04:08:32;;;;;;;13.52;9.50;;;;;;;19.41;100.00;100282.97;5012189;28;20037;-72
2023/09/11 04:10:58;;;;;;;15.45;9.85;;;;;;;19.43;100.00;100283.44;5000885;28;20544;-72
2023/09/11 04:13:23;;;;;;;17.67;10.30;;;;;;;19.37;100.00;100287.69;5019943;28;20029;-72
2023/09/11 04:15:49;;;;;;;20.30;11.93;;;;;;;19.23;100.00;100273.22;5018524;28;20088;-72
2023/09/11 04:18:14;;;;;;;18.85;10.65;;;;;;;19.28;100.00;100277.75;5001946;28;20489;-72
2023/09/11 04:20:40;;;;;;;16.88;9.45;;;;;;;19.32;100.00;100279.50;5002076;28;20034;-72
2023/09/11 04:23:05;;;;;;;13.38;9.07;;;;;;;19.36;100.00;100262.69;5018544;28;20520;-72
2023/09/11 04:25:31;;;;;;;17.27;11.77;;;;;;;19.33;100.00;100283.13;4985781;28;20038;-72
2023/09/11 04:27:56;;;;;;;15.93;9.80;;;;;;;19.32;100.00;100279.50;5002163;28;20033;-72
2023/09/11 04:30:25;;;;;;;14.02;9.10;;;;;;;19.35;100.00;100275.16;5013532;28;20034;-72
2023/09/11 04:32:50;;;;;;;13.85;8.35;;;;;;;19.34;100.00;100274.34;4999686;28;20034;-72
2023/09/11 04:35:18;;;;;;;12.20;8.32;;;;;;;19.33;100.00;100261.41;4981353;28;20076;-72
2023/09/11 04:37:44;;;;;;;11.82;8.45;;;;;;;19.34;100.00;100262.25;4979233;28;20034;-72
2023/09/11 04:40:09;;;;;;;11.65;8.30;;;;;;;19.37;100.00;100270.78;4985138;28;20041;-72
2023/09/11 04:42:35;;;;;;;14.43;9.18;;;;;;;19.36;100.00;100268.31;4985423;28;20030;-72
2023/09/11 04:45:01;;;;;;;22.60;15.68;;;;;;;19.20;100.00;100273.94;5001734;28;20030;-72
2023/09/11 04:47:30;;;;;;;23.15;16.05;;;;;;;19.14;100.00;100284.63;5001846;28;20041;-72
2023/09/11 04:49:56;;;;;;;24.35;15.38;;;;;;;19.12;100.00;100280.53;5002069;28;20087;-72
2023/09/11 04:52:21;;;;;;;17.20;9.63;;;;;;;19.10;100.00;100282.88;4985472;28;20037;-72
2023/09/11 04:54:47;;;;;;;15.00;9.48;;;;;;;19.15;100.00;100285.44;5001232;28;20034;-72
2023/09/11 04:57:12;;;;;;;13.02;9.02;;;;;;;19.22;100.00;100296.06;5001590;28;20417;-72
2023/09/11 04:59:38;;;;;;;21.65;13.10;;;;;;;19.23;100.00;100294.91;4997972;28;20037;-72
2023/09/11 05:02:04;;;;;;;12.35;9.32;;;;;;;19.23;100.00;100295.72;4994884;28;20041;-72
2023/09/11 05:04:29;;;;;;;19.30;11.98;;;;;;;19.24;100.00;100307.81;5001409;28;20025;-72
2023/09/11 05:06:55;;;;;;;13.73;8.13;;;;;;;19.26;100.00;100303.47;5017666;28;20056;-72
2023/09/11 05:09:20;;;;;;;13.48;8.95;;;;;;;19.27;100.00;100299.44;5017217;28;20549;-72
2023/09/11 05:11:45;;;;;;;13.35;9.55;;;;;;;19.22;100.00;100302.50;5016206;28;20046;-72
2023/09/11 05:14:11;;;;;;;23.67;15.38;;;;;;;19.17;100.00;100305.59;5001147;28;20100;-73
2023/09/11 05:16:36;;;;;;;18.05;11.35;;;;;;;19.17;100.00;100302.78;4985025;28;20037;-72
2023/09/11 05:19:02;;;;;;;21.88;13.38;;;;;;;19.19;100.00;100308.88;5017025;28;20034;-73
2023/09/11 05:21:27;;;;;;;17.58;11.20;;;;;;;19.09;100.00;100303.75;4981763;28;20559;-73
2023/09/11 05:23:53;;;;;;;17.25;10.32;;;;;;;19.09;100.00;100307.38;4979336;28;20035;-68
2023/09/11 05:26:18;;;;;;;18.58;10.68;;;;;;;19.09;100.00;100321.47;4992679;28;20568;-69
2023/09/11 05:28:44;;;;;;;16.30;9.02;;;;;;;19.17;100.00;100330.94;4981391;28;20045;-68
2023/09/11 05:31:10;;;;;;;14.55;8.57;;;;;;;19.21;100.00;100334.66;5000984;28;20037;-68
2023/09/11 05:33:35;;;;;;;15.38;7.88;;;;;;;19.24;100.00;100342.41;5017066;28;20120;-68
2023/09/11 05:36:02;;;;;;;11.00;7.97;;;;;;;19.29;100.00;100342.16;5000873;28;20034;-68
2023/09/11 05:38:27;;;;;;;17.55;10.50;;;;;;;19.28;100.00;100343.34;5000496;28;20032;-68
2023/09/11 05:40:53;;;;;;;16.23;11.02;;;;;;;19.22;100.00;100344.75;5001062;28;20026;-68
2023/09/11 05:43:19;;;;;;;16.98;9.57;;;;;;;19.25;100.00;100341.25;5000591;28;20061;-68
2023/09/11 05:45:45;;;;;;;16.13;8.77;;;;;;;19.27;100.00;100332.44;4981313;28;20030;-69
2023/09/11 05:48:11;;;;;;;29.00;17.23;;;;;;;19.18;100.00;100346.66;5013550;28;20397;-68
2023/09/11 05:50:38;;;;;;;24.08;14.57;;;;;;;19.23;100.00;100354.84;4997402;28;20026;-68
2023/09/11 05:53:04;;;;;;;22.58;13.20;;;;;;;19.25;100.00;100352.50;5015300;28;20486;-68
2023/09/11 05:55:29;;;;;;;19.25;11.00;;;;;;;19.29;100.00;100358.22;4999881;28;20026;-68
2023/09/11 05:57:55;;;;;;;23.65;12.60;;;;;;;19.24;100.00;100350.84;5000456;28;20034;-68
2023/09/11 06:00:21;;;;;;;25.13;13.15;;;;;;;19.25;100.00;100351.66;5016944;28;20096;-68
2023/09/11 06:02:46;;;;;;;21.13;14.05;;;;;;;19.20;100.00;100353.56;5016775;28;20398;-68
2023/09/11 06:05:12;;;;;;;20.92;12.07;;;;;;;19.22;100.00;100358.00;4984172;28;20022;-68
2023/09/11 06:07:38;;;;;;;18.20;11.15;;;;;;;19.19;100.00;100370.78;4983853;28;20057;-69
2023/09/11 06:10:04;;;;;;;28.27;17.45;;;;;;;19.12;100.00;100368.59;4996686;28;20041;-68
2023/09/11 06:12:30;;;;;;;20.15;11.68;;;;;;;19.16;100.00;100366.69;4999112;28;20045;-68
2023/09/11 06:14:55;;;;;;;20.52;13.80;;;;;;;19.20;100.00;100364.00;4996891;28;20041;-69
2023/09/11 06:17:21;;;;;;;14.20;9.90;;;;;;;19.24;100.00;100364.09;4961982;28;20102;-69
2023/09/11 06:19:46;;;;;;;19.98;12.95;;;;;;;19.25;100.00;100360.94;4981098;28;20068;-69
2023/09/11 06:22:12;;;;;;;15.18;9.82;;;;;;;19.25;100.00;100372.22;5017564;28;20030;-69
2023/09/11 06:24:38;;;;;;;13.70;10.27;;;;;;;19.28;100.00;100368.69;5000190;28;20042;-69
2023/09/11 06:27:06;;;;;;;13.80;8.35;;;;;;;19.32;100.00;100371.59;5000084;28;20030;-69
2023/09/11 06:29:31;;;;;;;13.98;9.63;;;;;;;19.33;100.00;100385.28;4999944;28;20030;-69
2023/09/11 06:31:57;;;;;;;14.43;8.30;;;;;;;19.38;100.00;100372.97;4999973;28;20045;-69
2023/09/11 06:34:22;;;;;;;22.05;13.95;;;;;;;19.37;100.00;100385.44;4996827;28;20529;-69
2023/09/11 06:36:48;;;;;;;14.68;9.57;;;;;;;19.44;100.00;100385.63;4981807;28;20044;-69
2023/09/11 06:39:13;;;;;;;24.40;15.43;;;;;;;19.35;100.00;100394.22;4982970;28;20022;-69
2023/09/11 06:41:40;;;;;;;15.98;9.55;;;;;;;19.47;100.00;100395.34;4997691;28;20034;-69
2023/09/11 06:44:05;;;;;;;14.98;8.55;;;;;;;19.55;100.00;100395.19;4986928;28;20045;-70
2023/09/11 06:46:31;;;;;;;19.05;11.90;;;;;;;19.54;100.00;100398.41;5016267;28;20335;-69
2023/09/11 06:48:56;;;;;;;15.45;10.60;;;;;;;19.57;100.00;100392.84;5016144;28;20030;-69
2023/09/11 06:51:22;;;;;;;12.60;8.90;;;;;;;19.65;100.00;100391.06;5016288;28;20034;-69
2023/09/11 06:53:48;;;;;;;20.83;12.10;;;;;;;19.63;100.00;100396.25;4996367;28;20030;-69
2023/09/11 06:56:13;;;;;;;16.88;10.90;;;;;;;19.67;100.00;100397.22;4998189;28;20034;-69
2023/09/11 06:58:39;;;;;;;16.73;10.50;;;;;;;19.71;100.00;100398.13;4983624;28;20029;-69
2023/09/11 07:01:04;;;;;;;18.67;10.60;;;;;;;19.77;100.00;100388.22;4999671;28;20034;-69
2023/09/11 07:03:30;;;;;;;12.80;9.18;;;;;;;19.81;100.00;100388.34;4996690;28;20022;-69
2023/09/11 07:05:55;;;;;;;16.50;10.77;;;;;;;19.80;100.00;100384.69;5000428;28;20060;-69
2023/09/11 07:08:21;;;;;;;22.65;12.20;;;;;;;19.80;100.00;100390.31;5019443;28;20033;-69
2023/09/11 07:10:50;;;;;;;14.82;10.40;;;;;;;19.77;100.00;100390.22;5001902;28;20046;-69
2023/09/11 07:13:16;;;;;;;14.48;9.15;;;;;;;19.86;100.00;100382.44;5000302;28;20034;-69
2023/09/11 07:15:41;;;;;;;14.13;9.27;;;;;;;19.84;100.00;100382.81;4980918;28;20041;-69
2023/09/11 07:18:07;;;;;;;20.17;10.85;;;;;;;19.89;100.00;100387.34;5001567;28;20034;-69
2023/09/11 07:20:32;;;;;;;17.48;11.52;;;;;;;19.88;100.00;100382.06;5019712;28;20065;-69
2023/09/11 07:22:58;;;;;;;20.83;10.85;;;;;;;19.86;100.00;100377.63;4987081;28;20544;-69
2023/09/11 07:25:23;;;;;;;15.60;9.30;;;;;;;19.94;100.00;100375.00;5019307;28;20108;-69
2023/09/11 07:27:49;;;;;;;19.40;11.90;;;;;;;19.95;100.00;100383.09;5019320;28;20053;-69
2023/09/11 07:30:14;;;;;;;20.17;12.02;;;;;;;19.95;100.00;100376.66;4986671;28;20034;-69
2023/09/11 07:32:40;;;;;;;17.05;9.98;;;;;;;19.99;100.00;100380.38;5019342;28;20025;-69
2023/09/11 07:35:06;;;;;;;18.30;11.50;;;;;;;19.96;100.00;100381.09;5002920;28;20037;-70
2023/09/11 07:37:32;;;;;;;21.17;11.77;;;;;;;20.02;100.00;100382.47;5000911;28;20724;-70
2023/09/11 07:39:58;;;;;;;19.30;10.60;;;;;;;20.07;100.00;100365.28;4985739;28;20022;-70
2023/09/11 07:42:24;;;;;;;14.68;8.93;;;;;;;20.09;100.00;100368.56;5002932;28;20030;-69
2023/09/11 07:44:51;;;;;;;16.92;10.73;;;;;;;20.12;100.00;100369.84;5011510;28;20040;-69
2023/09/11 07:47:16;;;;;;;16.15;11.40;;;;;;;20.12;100.00;100367.84;4999596;28;20026;-69
2023/09/11 07:49:42;;;;;;;15.00;10.13;;;;;;;20.17;100.00;100370.41;5000906;28;20032;-69
2023/09/11 07:52:07;;;;;;;18.20;10.20;;;;;;;20.22;100.00;100381.38;5019075;28;20061;-69
2023/09/11 07:54:33;;;;;;;14.63;10.13;;;;;;;20.25;100.00;100383.50;5002548;28;20072;-69
2023/09/11 07:57:01;;;;;;;19.05;10.25;;;;;;;20.27;100.00;100383.13;5001725;28;20041;-69
2023/09/11 07:59:26;;;;;;;16.13;10.52;;;;;;;20.33;100.00;100389.31;4989937;28;20103;-69
2023/09/11 08:01:53;;;;;;;14.18;9.07;;;;;;;20.39;100.00;100393.50;5019004;28;20029;-69
2023/09/11 08:04:19;;;;;;;14.65;9.65;;;;;;;20.41;100.00;100388.31;5018805;28;20029;-69
2023/09/11 08:06:44;;;;;;;17.17;9.93;;;;;;;20.40;100.00;100383.88;4999209;28;20406;-69
2023/09/11 08:09:10;;;;;;;19.45;10.88;;;;;;;20.41;100.00;100383.50;5017023;28;20068;-69
2023/09/11 08:11:39;;;;;;;18.23;11.00;;;;;;;20.44;100.00;100390.41;5017574;28;20081;-69
2023/09/11 08:14:07;;;;;;;21.23;12.07;;;;;;;20.42;100.00;100387.97;4986507;28;20040;-69
2023/09/11 08:16:33;;;;;;;17.17;11.43;;;;;;;20.46;100.00;100388.06;5001727;28;20029;-70
2023/09/11 08:18:59;;;;;;;19.25;11.38;;;;;;;20.48;100.00;100391.34;4985554;28;20149;-70
2023/09/11 08:21:24;;;;;;;20.95;11.75;;;;;;;20.49;100.00;100392.97;4999039;28;20107;-69
2023/09/11 08:23:50;;;;;;;18.25;11.35;;;;;;;20.49;100.00;100387.31;5016039;28;20056;-69
2023/09/11 08:26:16;;;;;;;17.70;10.93;;;;;;;20.52;100.00;100387.41;4998769;28;20478;-70
2023/09/11 08:28:41;;;;;;;17.05;10.98;;;;;;;20.56;100.00;100387.53;5002093;28;20091;-69
2023/09/11 08:31:06;;;;;;;16.83;11.30;;;;;;;20.57;100.00;100391.19;5018238;28;20029;-70
2023/09/11 08:33:32;;;;;;;18.33;10.65;;;;;;;20.56;100.00;100384.72;5010090;28;20030;-69
2023/09/11 08:35:57;;;;;;;15.75;10.50;;;;;;;20.58;100.00;100390.00;4982531;28;20122;-69
2023/09/11 08:38:23;;;;;;;14.00;9.50;;;;;;;20.61;100.00;100384.41;5015267;28;20037;-69
2023/09/11 08:40:49;;;;;;;16.48;10.18;;;;;;;20.61;100.00;100387.25;5018268;28;20105;-69
2023/09/11 08:43:14;;;;;;;17.60;10.23;;;;;;;20.63;100.00;100396.16;4982011;28;20041;-69
2023/09/11 08:45:40;;;;;;;15.70;10.65;;;;;;;20.63;100.00;100399.00;4993271;28;20036;-69
2023/09/11 08:48:11;;;;;;;16.38;10.18;;;;;;;20.61;100.00;100392.88;5001710;28;20033;-69
2023/09/11 08:50:43;;;;;;;17.40;10.23;;;;;;;20.61;100.00;100392.06;4998193;28;20458;-69
2023/09/11 08:53:08;;;;;;;17.17;9.97;;;;;;;20.63;100.00;100389.72;4984699;28;20076;-69
2023/09/11 08:55:34;;;;;;;17.35;10.25;;;;;;;20.60;100.00;100384.81;4998214;28;20030;-69
2023/09/11 08:58:02;;;;;;;16.55;9.80;;;;;;;20.62;100.00;100383.25;4984794;28;20029;-69
2023/09/11 09:00:28;;;;;;;15.32;9.52;;;;;;;20.67;100.00;100391.44;4998299;28;20029;-69
2023/09/11 09:02:53;;;;;;;16.98;9.93;;;;;;;20.63;100.00;100384.88;5000926;28;20034;-70
2023/09/11 09:05:19;;;;;;;18.08;10.80;;;;;;;20.66;100.00;100381.34;4985166;28;20490;-69
2023/09/11 09:07:46;;;;;;;17.65;9.48;;;;;;;20.63;100.00;100382.06;5001142;28;20038;-69
2023/09/11 09:10:11;;;;;;;14.43;9.65;;;;;;;20.69;100.00;100379.78;5000993;28;20165;-69
2023/09/11 09:12:37;;;;;;;15.15;9.32;;;;;;;20.71;100.00;100383.06;5000051;28;20034;-69
2023/09/11 09:15:03;;;;;;;16.52;10.55;;;;;;;20.72;100.00;100374.22;5017679;28;20053;-69
2023/09/11 09:17:29;;;;;;;17.38;9.55;;;;;;;20.71;100.00;100366.94;5000236;28;20120;-69
2023/09/11 09:19:54;;;;;;;14.57;9.77;;;;;;;20.73;100.00;100367.41;4984384;28;20060;-69
2023/09/11 09:22:19;;;;;;;14.35;10.20;;;;;;;20.74;100.00;100360.56;5000886;28;20037;-69
2023/09/11 09:24:53;;;;;;;16.13;9.85;;;;;;;20.75;100.00;100356.59;5000863;28;20386;-69
2023/09/11 09:27:19;;;;;;;21.77;11.10;;;;;;;20.77;100.00;100358.22;5001247;28;20088;-69
2023/09/11 09:29:45;;;;;;;15.90;8.70;;;;;;;20.82;100.00;100355.09;5000350;28;20029;-69
2023/09/11 09:32:11;;;;;;;16.25;10.85;;;;;;;20.81;100.00;100354.28;5017166;28;20048;-69
2023/09/11 09:34:37;;;;;;;15.50;9.35;;;;;;;20.88;100.00;100359.28;4983664;28;20477;-69
2023/09/11 09:37:03;;;;;;;17.17;8.88;;;;;;;20.90;100.00;100339.97;5000605;28;20156;-68
2023/09/11 09:39:29;;;;;;;13.80;8.35;;;;;;;20.96;100.00;100344.94;4997179;28;20128;-68
2023/09/11 09:41:56;;;;;;;15.68;9.90;;;;;;;21.00;100.00;100345.03;4984555;28;20092;-69
2023/09/11 09:44:37;;;;;;;14.32;8.32;;;;;;;21.09;100.00;100342.84;5000723;28;20092;-69
2023/09/11 09:47:10;;;;;;;12.40;8.27;;;;;;;21.18;100.00;100346.25;5001483;28;20021;-69
2023/09/11 09:49:53;;;;;;;16.55;8.70;;;;;;;21.25;100.00;100345.56;4984050;28;20508;-69
2023/09/11 09:52:20;;;;;;;12.85;8.57;;;;;;;21.29;100.00;100340.03;4999869;28;20076;-69
2023/09/11 09:54:47;;;;;;;15.25;8.63;;;;;;;21.31;100.00;100329.16;5000380;28;20045;-69
2023/09/11 09:57:14;;;;;;;11.20;7.80;;;;;;;21.37;100.00;100334.19;4997214;28;20058;-69
2023/09/11 09:59:41;;;;;;;12.20;6.97;;;;;;;21.45;100.00;100321.00;4980963;28;20050;-69
2023/09/11 10:02:08;;;;;;;10.45;6.50;;;;;;;21.53;100.00;100331.25;4993596;28;20433;-69
2023/09/11 10:04:33;;;;;;;10.35;6.65;;;;;;;21.59;100.00;100326.97;4998508;28;20029;-69
2023/09/11 10:06:59;;;;;;;13.13;7.50;;;;;;;21.66;100.00;100331.13;5000682;28;20040;-69
2023/09/11 10:09:24;;;;;;;14.07;7.30;;;;;;;21.68;100.00;100331.56;4983475;28;20039;-69
2023/09/11 10:11:50;;;;;;;10.32;6.22;;;;;;;21.71;100.00;100319.50;4975650;28;20148;-69
2023/09/11 10:14:15;;;;;;;11.38;6.30;;;;;;;21.74;100.00;100318.75;4980575;28;20525;-69
2023/09/11 10:16:41;;;;;;;11.00;6.85;;;;;;;21.78;100.00;100317.63;4980616;28;20036;-69
2023/09/11 10:19:06;;;;;;;10.98;6.10;;;;;;;21.87;100.00;100325.88;4980095;28;20026;-69
2023/09/11 10:21:32;;;;;;;11.35;6.35;;;;;;;21.92;100.00;100322.72;4992415;28;20039;-69
2023/09/11 10:23:58;;;;;;;11.73;6.10;;;;;;;22.01;100.00;100314.81;4979279;28;20034;-69
2023/09/11 10:26:26;;;;;;;10.23;5.80;;;;;;;22.06;100.00;100306.03;4990739;28;20031;-69
2023/09/11 10:28:52;;;;;;;8.95;5.90;;;;;;;22.16;100.00;100306.59;4987525;28;20029;-69
2023/09/11 10:31:25;;;;;;;10.65;5.88;;;;;;;22.24;100.00;100305.56;4980491;28;20085;-69
2023/09/11 10:33:54;;;;;;;9.60;6.28;;;;;;;22.27;100.00;100302.78;4980992;28;20086;-69
2023/09/11 10:36:21;;;;;;;14.38;5.82;;;;;;;22.37;100.00;100298.50;4964227;28;20036;-69
2023/09/11 10:38:47;;;;;;;11.00;5.60;;;;;;;22.49;100.00;100300.28;4980071;28;20496;-69
2023/09/11 10:41:13;;;;;;;12.05;6.30;;;;;;;22.58;100.00;100291.53;4985339;28;20030;-69
2023/09/11 10:43:39;;;;;;;7.97;5.75;;;;;;;22.66;100.00;100287.63;4985552;28;20030;-69
2023/09/11 10:46:30;;;;;;;9.27;6.10;;;;;;;22.75;100.00;100290.97;4986397;28;20087;-69
2023/09/11 10:48:56;;;;;;;7.90;5.53;;;;;;;22.86;100.00;100291.13;5003110;28;20042;-69
2023/09/11 10:51:21;;;;;;;9.02;5.43;;;;;;;22.99;100.00;100288.94;4986497;28;20033;-69
2023/09/11 10:53:50;;;;;;;10.20;5.65;;;;;;;23.18;100.00;100288.78;4986628;28;20070;-69
2023/09/11 10:56:16;;;;;;;7.13;5.25;;;;;;;23.39;100.00;100286.19;4986630;28;20608;-69
2023/09/11 10:58:41;;;;;;;11.85;5.15;;;;;;;23.56;100.00;100281.09;4986861;28;20077;-69
2023/09/11 11:01:07;;;;;;;8.38;4.97;;;;;;;23.75;100.00;100280.94;4986690;28;20490;-69
2023/09/11 11:03:33;;;;;;;9.25;5.10;;;;;;;23.96;100.00;100269.00;4985254;28;20129;-69